T05 weather

Charles R Johnson Airport
Port Mansfield, Texas, United States

Public forecast

Using degrees Fahrenheit for public forecast. Weather courtesy of forecast.io.

Closest aviation weather report (METAR) to Charles R Johnson Airport

Closest report is Valley International Airport, 23.2 nm (43.0 km) SSW. Retrieved 2019/10/15 01:52 UTC (31 minutes ago):

KHRL 150152Z 13007KT 10SM CLR 27/24 A2991 RMK AO2 SLP129 T02670244

Closest aviation forecast (TAF) to Charles R Johnson Airport

Closest forecast is Valley International Airport, 23.2 nm (43.0 km) SSW. Retrieved 2019-10-15 00:22 UTC (2 hours ago):

TAF KHRL 142320Z 1500/1524 12010KT P6SM FEW040 FEW250 FM150900 16007KT P6SM FEW023 FEW250 FM151200 14005KT P6SM FEW012 FEW150 FM151500 16010KT P6SM FEW022 SCT100